sensor_id;sensor_type;location;lat;lon;timestamp;temperature;humidity
75387;DHT22;63966;47.914;22.266;2023-05-29T00:03:01;13.97;83.57
75387;DHT22;63966;47.914;22.266;2023-05-29T00:06:05;14.09;84.39
75387;DHT22;63966;47.914;22.266;2023-05-29T00:09:09;14.19;83.67
75387;DHT22;63966;47.914;22.266;2023-05-29T00:12:12;14.20;83.82
75387;DHT22;63966;47.914;22.266;2023-05-29T00:15:16;14.16;83.70
75387;DHT22;63966;47.914;22.266;2023-05-29T00:18:20;14.17;83.48
75387;DHT22;63966;47.914;22.266;2023-05-29T00:21:24;14.26;83.32
75387;DHT22;63966;47.914;22.266;2023-05-29T00:24:27;14.32;83.54
75387;DHT22;63966;47.914;22.266;2023-05-29T00:27:31;14.43;82.95
75387;DHT22;63966;47.914;22.266;2023-05-29T00:30:35;14.51;82.49
75387;DHT22;63966;47.914;22.266;2023-05-29T00:33:39;14.48;82.42
75387;DHT22;63966;47.914;22.266;2023-05-29T00:36:42;14.53;82.98
75387;DHT22;63966;47.914;22.266;2023-05-29T00:39:46;14.53;82.67
75387;DHT22;63966;47.914;22.266;2023-05-29T00:42:49;14.56;82.51
75387;DHT22;63966;47.914;22.266;2023-05-29T00:45:52;14.54;82.56
75387;DHT22;63966;47.914;22.266;2023-05-29T00:48:56;14.57;82.16
75387;DHT22;63966;47.914;22.266;2023-05-29T00:51:59;14.61;83.06
75387;DHT22;63966;47.914;22.266;2023-05-29T00:55:03;14.63;82.99
75387;DHT22;63966;47.914;22.266;2023-05-29T00:58:07;14.65;82.83
75387;DHT22;63966;47.914;22.266;2023-05-29T01:01:11;14.60;82.69
75387;DHT22;63966;47.914;22.266;2023-05-29T01:04:16;14.57;82.88
75387;DHT22;63966;47.914;22.266;2023-05-29T01:07:20;14.60;82.61
75387;DHT22;63966;47.914;22.266;2023-05-29T01:10:23;14.54;83.04
75387;DHT22;63966;47.914;22.266;2023-05-29T01:13:30;14.50;83.18
75387;DHT22;63966;47.914;22.266;2023-05-29T01:16:58;14.40;83.53
75387;DHT22;63966;47.914;22.266;2023-05-29T01:27:22;14.20;84.76
75387;DHT22;63966;47.914;22.266;2023-05-29T01:30:29;14.20;84.75
75387;DHT22;63966;47.914;22.266;2023-05-29T01:33:37;14.13;84.66
75387;DHT22;63966;47.914;22.266;2023-05-29T01:36:41;14.10;84.76
75387;DHT22;63966;47.914;22.266;2023-05-29T01:39:44;14.04;85.06
75387;DHT22;63966;47.914;22.266;2023-05-29T01:42:49;14.01;85.28
75387;DHT22;63966;47.914;22.266;2023-05-29T01:45:53;13.98;85.35
75387;DHT22;63966;47.914;22.266;2023-05-29T01:48:56;13.94;85.56
75387;DHT22;63966;47.914;22.266;2023-05-29T01:51:59;13.86;85.79
75387;DHT22;63966;47.914;22.266;2023-05-29T01:55:03;13.82;86.03
75387;DHT22;63966;47.914;22.266;2023-05-29T01:58:07;13.85;85.84
75387;DHT22;63966;47.914;22.266;2023-05-29T02:01:13;13.82;85.86
75387;DHT22;63966;47.914;22.266;2023-05-29T02:04:16;13.78;86.23
75387;DHT22;63966;47.914;22.266;2023-05-29T02:07:20;13.77;86.27
75387;DHT22;63966;47.914;22.266;2023-05-29T02:10:23;13.81;86.10
75387;DHT22;63966;47.914;22.266;2023-05-29T02:13:26;13.83;85.98
75387;DHT22;63966;47.914;22.266;2023-05-29T02:16:30;13.85;86.15
75387;DHT22;63966;47.914;22.266;2023-05-29T02:19:36;13.85;86.30
75387;DHT22;63966;47.914;22.266;2023-05-29T02:22:40;13.85;86.55
75387;DHT22;63966;47.914;22.266;2023-05-29T02:25:45;13.88;86.26
75387;DHT22;63966;47.914;22.266;2023-05-29T02:28:48;13.94;86.11
75387;DHT22;63966;47.914;22.266;2023-05-29T02:31:52;13.88;86.21
75387;DHT22;63966;47.914;22.266;2023-05-29T02:34:55;13.89;85.91
75387;DHT22;63966;47.914;22.266;2023-05-29T02:37:59;13.88;86.06
75387;DHT22;63966;47.914;22.266;2023-05-29T02:41:02;13.98;85.80
75387;DHT22;63966;47.914;22.266;2023-05-29T02:44:05;14.15;84.78
75387;DHT22;63966;47.914;22.266;2023-05-29T02:47:09;14.12;84.78
75387;DHT22;63966;47.914;22.266;2023-05-29T02:50:12;13.97;85.34
75387;DHT22;63966;47.914;22.266;2023-05-29T02:53:17;13.88;85.62
75387;DHT22;63966;47.914;22.266;2023-05-29T02:56:21;13.86;85.73
75387;DHT22;63966;47.914;22.266;2023-05-29T02:59:27;13.97;85.75
75387;DHT22;63966;47.914;22.266;2023-05-29T03:02:31;14.02;85.49
75387;DHT22;63966;47.914;22.266;2023-05-29T03:05:35;14.16;85.26
75387;DHT22;63966;47.914;22.266;2023-05-29T03:08:38;14.23;84.97
75387;DHT22;63966;47.914;22.266;2023-05-29T03:11:43;14.27;84.91
75387;DHT22;63966;47.914;22.266;2023-05-29T03:14:47;14.37;84.86
75387;DHT22;63966;47.914;22.266;2023-05-29T03:17:51;14.48;84.42
75387;DHT22;63966;47.914;22.266;2023-05-29T03:21:00;14.65;83.83
75387;DHT22;63966;47.914;22.266;2023-05-29T03:24:08;14.92;82.90
75387;DHT22;63966;47.914;22.266;2023-05-29T03:27:12;15.29;81.80
75387;DHT22;63966;47.914;22.266;2023-05-29T03:30:16;15.59;80.13
75387;DHT22;63966;47.914;22.266;2023-05-29T03:33:20;15.42;80.66
75387;DHT22;63966;47.914;22.266;2023-05-29T03:36:36;15.22;81.33
75387;DHT22;63966;47.914;22.266;2023-05-29T03:39:40;15.12;81.83
75387;DHT22;63966;47.914;22.266;2023-05-29T03:42:44;15.15;81.74
75387;DHT22;63966;47.914;22.266;2023-05-29T03:45:49;15.11;81.93
75387;DHT22;63966;47.914;22.266;2023-05-29T03:48:53;15.09;82.07
75387;DHT22;63966;47.914;22.266;2023-05-29T03:51:56;15.09;81.93
75387;DHT22;63966;47.914;22.266;2023-05-29T03:55:00;15.11;81.77
75387;DHT22;63966;47.914;22.266;2023-05-29T03:58:03;15.19;81.78
75387;DHT22;63966;47.914;22.266;2023-05-29T04:01:07;15.38;81.22
75387;DHT22;63966;47.914;22.266;2023-05-29T04:04:11;15.53;80.81
75387;DHT22;63966;47.914;22.266;2023-05-29T04:07:14;15.80;79.60
75387;DHT22;63966;47.914;22.266;2023-05-29T04:10:20;15.76;80.00
75387;DHT22;63966;47.914;22.266;2023-05-29T04:13:24;15.89;79.60
75387;DHT22;63966;47.914;22.266;2023-05-29T04:16:28;15.91;79.97
75387;DHT22;63966;47.914;22.266;2023-05-29T04:19:31;15.89;80.70
75387;DHT22;63966;47.914;22.266;2023-05-29T04:22:36;16.26;78.77
75387;DHT22;63966;47.914;22.266;2023-05-29T04:25:40;16.21;79.70
75387;DHT22;63966;47.914;22.266;2023-05-29T04:28:44;16.35;79.64
75387;DHT22;63966;47.914;22.266;2023-05-29T04:31:48;16.38;79.69
75387;DHT22;63966;47.914;22.266;2023-05-29T04:34:51;16.60;78.97
75387;DHT22;63966;47.914;22.266;2023-05-29T04:37:55;16.57;79.40
75387;DHT22;63966;47.914;22.266;2023-05-29T04:41:00;16.72;79.28
75387;DHT22;63966;47.914;22.266;2023-05-29T04:44:04;18.41;74.04
75387;DHT22;63966;47.914;22.266;2023-05-29T04:47:16;19.91;69.17
75387;DHT22;63966;47.914;22.266;2023-05-29T04:50:19;20.91;65.26
75387;DHT22;63966;47.914;22.266;2023-05-29T04:53:24;21.04;63.59
75387;DHT22;63966;47.914;22.266;2023-05-29T04:56:28;21.53;61.80
75387;DHT22;63966;47.914;22.266;2023-05-29T04:59:31;21.14;63.67
75387;DHT22;63966;47.914;22.266;2023-05-29T05:02:35;20.04;66.43
75387;DHT22;63966;47.914;22.266;2023-05-29T05:05:38;19.95;66.57
75387;DHT22;63966;47.914;22.266;2023-05-29T05:08:42;21.24;63.54
75387;DHT22;63966;47.914;22.266;2023-05-29T05:11:45;20.84;63.90
75387;DHT22;63966;47.914;22.266;2023-05-29T05:14:49;20.28;66.57
75387;DHT22;63966;47.914;22.266;2023-05-29T05:18:23;19.92;67.16
75387;DHT22;63966;47.914;22.266;2023-05-29T05:35:01;19.40;70.76
75387;DHT22;63966;47.914;22.266;2023-05-29T05:38:07;19.65;70.75
75387;DHT22;63966;47.914;22.266;2023-05-29T05:41:12;20.16;68.07
75387;DHT22;63966;47.914;22.266;2023-05-29T05:44:16;20.78;66.78
75387;DHT22;63966;47.914;22.266;2023-05-29T05:47:26;21.01;66.41
75387;DHT22;63966;47.914;22.266;2023-05-29T05:50:32;20.99;66.12
75387;DHT22;63966;47.914;22.266;2023-05-29T05:53:36;21.07;65.55
75387;DHT22;63966;47.914;22.266;2023-05-29T05:56:39;21.41;65.30
75387;DHT22;63966;47.914;22.266;2023-05-29T05:59:45;21.74;64.50
75387;DHT22;63966;47.914;22.266;2023-05-29T06:02:49;21.74;64.15
75387;DHT22;63966;47.914;22.266;2023-05-29T06:06:06;21.72;64.66
75387;DHT22;63966;47.914;22.266;2023-05-29T06:09:11;21.84;64.63
75387;DHT22;63966;47.914;22.266;2023-05-29T06:12:15;21.79;64.36
75387;DHT22;63966;47.914;22.266;2023-05-29T06:15:29;21.70;64.75
75387;DHT22;63966;47.914;22.266;2023-05-29T06:18:32;21.53;65.15
75387;DHT22;63966;47.914;22.266;2023-05-29T06:21:36;21.52;65.50
75387;DHT22;63966;47.914;22.266;2023-05-29T06:24:40;21.41;66.25
75387;DHT22;63966;47.914;22.266;2023-05-29T06:27:44;21.35;66.76
75387;DHT22;63966;47.914;22.266;2023-05-29T06:30:48;21.46;66.41
75387;DHT22;63966;47.914;22.266;2023-05-29T06:33:51;21.56;66.27
75387;DHT22;63966;47.914;22.266;2023-05-29T06:36:54;21.79;65.43
75387;DHT22;63966;47.914;22.266;2023-05-29T06:39:58;22.12;64.66
75387;DHT22;63966;47.914;22.266;2023-05-29T06:43:02;22.25;64.78
75387;DHT22;63966;47.914;22.266;2023-05-29T06:46:15;22.15;64.42
75387;DHT22;63966;47.914;22.266;2023-05-29T06:49:19;22.38;64.64
75387;DHT22;63966;47.914;22.266;2023-05-29T06:52:23;22.35;65.93
75387;DHT22;63966;47.914;22.266;2023-05-29T06:55:45;22.70;64.44
75387;DHT22;63966;47.914;22.266;2023-05-29T06:58:48;23.04;63.69
75387;DHT22;63966;47.914;22.266;2023-05-29T07:01:52;23.24;62.44
75387;DHT22;63966;47.914;22.266;2023-05-29T07:04:56;23.53;62.66
75387;DHT22;63966;47.914;22.266;2023-05-29T07:08:00;23.83;62.11
75387;DHT22;63966;47.914;22.266;2023-05-29T07:11:04;24.37;60.44
75387;DHT22;63966;47.914;22.266;2023-05-29T07:14:08;24.47;57.94
75387;DHT22;63966;47.914;22.266;2023-05-29T07:17:11;24.57;58.64
75387;DHT22;63966;47.914;22.266;2023-05-29T07:20:15;24.61;57.82
75387;DHT22;63966;47.914;22.266;2023-05-29T07:23:20;24.40;58.73
75387;DHT22;63966;47.914;22.266;2023-05-29T07:26:23;24.39;58.59
75387;DHT22;63966;47.914;22.266;2023-05-29T07:29:27;24.37;57.97
75387;DHT22;63966;47.914;22.266;2023-05-29T07:32:30;24.13;58.58
75387;DHT22;63966;47.914;22.266;2023-05-29T07:35:34;24.29;59.28
75387;DHT22;63966;47.914;22.266;2023-05-29T07:38:40;24.46;60.15
75387;DHT22;63966;47.914;22.266;2023-05-29T07:41:43;24.44;57.26
75387;DHT22;63966;47.914;22.266;2023-05-29T07:44:47;24.31;57.79
75387;DHT22;63966;47.914;22.266;2023-05-29T07:47:51;24.50;57.23
75387;DHT22;63966;47.914;22.266;2023-05-29T07:50:55;24.14;57.47
75387;DHT22;63966;47.914;22.266;2023-05-29T07:54:00;24.08;55.90
75387;DHT22;63966;47.914;22.266;2023-05-29T07:57:04;24.26;54.33
75387;DHT22;63966;47.914;22.266;2023-05-29T08:00:15;24.22;54.25
75387;DHT22;63966;47.914;22.266;2023-05-29T08:03:22;24.16;54.70
75387;DHT22;63966;47.914;22.266;2023-05-29T08:06:40;24.26;55.50
75387;DHT22;63966;47.914;22.266;2023-05-29T08:09:46;24.51;53.90
75387;DHT22;63966;47.914;22.266;2023-05-29T08:12:49;24.41;54.35
75387;DHT22;63966;47.914;22.266;2023-05-29T08:15:54;24.17;55.47
75387;DHT22;63966;47.914;22.266;2023-05-29T08:18:57;24.37;54.96
75387;DHT22;63966;47.914;22.266;2023-05-29T08:22:01;24.71;53.36
75387;DHT22;63966;47.914;22.266;2023-05-29T08:25:04;24.61;53.81
75387;DHT22;63966;47.914;22.266;2023-05-29T08:28:08;24.49;54.11
75387;DHT22;63966;47.914;22.266;2023-05-29T08:31:12;24.51;53.72
75387;DHT22;63966;47.914;22.266;2023-05-29T08:34:15;24.70;54.03
75387;DHT22;63966;47.914;22.266;2023-05-29T08:37:19;25.05;53.48
75387;DHT22;63966;47.914;22.266;2023-05-29T08:40:22;25.26;52.32
75387;DHT22;63966;47.914;22.266;2023-05-29T08:43:30;25.33;51.79
75387;DHT22;63966;47.914;22.266;2023-05-29T08:46:34;25.37;52.54
75387;DHT22;63966;47.914;22.266;2023-05-29T08:49:44;25.62;52.01
75387;DHT22;63966;47.914;22.266;2023-05-29T08:52:49;25.98;51.96
75387;DHT22;63966;47.914;22.266;2023-05-29T08:55:53;26.08;50.21
75387;DHT22;63966;47.914;22.266;2023-05-29T08:58:58;26.31;50.97
75387;DHT22;63966;47.914;22.266;2023-05-29T09:02:05;26.49;51.71
75387;DHT22;63966;47.914;22.266;2023-05-29T09:05:09;26.17;49.50
75387;DHT22;63966;47.914;22.266;2023-05-29T09:08:13;25.88;51.30
75387;DHT22;63966;47.914;22.266;2023-05-29T09:11:18;25.84;54.04
75387;DHT22;63966;47.914;22.266;2023-05-29T09:14:40;25.77;51.10
75387;DHT22;63966;47.914;22.266;2023-05-29T09:20:54;26.25;51.60
75387;DHT22;63966;47.914;22.266;2023-05-29T09:24:03;26.91;52.64
75387;DHT22;63966;47.914;22.266;2023-05-29T09:27:09;27.12;49.27
75387;DHT22;63966;47.914;22.266;2023-05-29T09:30:32;27.44;46.66
75387;DHT22;63966;47.914;22.266;2023-05-29T09:33:46;27.30;47.14
75387;DHT22;63966;47.914;22.266;2023-05-29T09:36:49;27.37;47.13
75387;DHT22;63966;47.914;22.266;2023-05-29T09:39:54;27.24;48.01
75387;DHT22;63966;47.914;22.266;2023-05-29T09:43:12;27.27;47.91
75387;DHT22;63966;47.914;22.266;2023-05-29T09:46:18;27.70;43.76
75387;DHT22;63966;47.914;22.266;2023-05-29T09:49:23;27.38;46.46
75387;DHT22;63966;47.914;22.266;2023-05-29T09:52:29;27.61;44.98
75387;DHT22;63966;47.914;22.266;2023-05-29T09:55:34;27.06;46.37
75387;DHT22;63966;47.914;22.266;2023-05-29T09:58:39;26.93;47.53
75387;DHT22;63966;47.914;22.266;2023-05-29T10:01:49;27.30;44.40
75387;DHT22;63966;47.914;22.266;2023-05-29T10:04:58;27.66;44.20
75387;DHT22;63966;47.914;22.266;2023-05-29T10:08:03;27.76;43.69
75387;DHT22;63966;47.914;22.266;2023-05-29T10:11:11;27.78;45.60
75387;DHT22;63966;47.914;22.266;2023-05-29T10:14:19;27.76;45.42
75387;DHT22;63966;47.914;22.266;2023-05-29T10:17:28;27.37;42.70
75387;DHT22;63966;47.914;22.266;2023-05-29T10:20:34;27.48;45.23
75387;DHT22;63966;47.914;22.266;2023-05-29T10:23:40;27.49;45.30
75387;DHT22;63966;47.914;22.266;2023-05-29T10:26:48;27.42;43.87
75387;DHT22;63966;47.914;22.266;2023-05-29T10:29:59;27.59;47.64
75387;DHT22;63966;47.914;22.266;2023-05-29T10:33:17;27.70;44.98
75387;DHT22;63966;47.914;22.266;2023-05-29T10:36:25;27.70;42.62
75387;DHT22;63966;47.914;22.266;2023-05-29T10:39:31;27.66;43.32
75387;DHT22;63966;47.914;22.266;2023-05-29T10:45:50;27.82;40.33
75387;DHT22;63966;47.914;22.266;2023-05-29T10:48:54;27.73;43.82
75387;DHT22;63966;47.914;22.266;2023-05-29T10:52:00;27.45;42.81
75387;DHT22;63966;47.914;22.266;2023-05-29T10:55:07;27.04;42.21
75387;DHT22;63966;47.914;22.266;2023-05-29T10:58:17;27.38;44.51
75387;DHT22;63966;47.914;22.266;2023-05-29T11:01:22;27.15;42.05
75387;DHT22;63966;47.914;22.266;2023-05-29T11:04:27;27.46;42.09
75387;DHT22;63966;47.914;22.266;2023-05-29T11:07:35;27.44;43.97
75387;DHT22;63966;47.914;22.266;2023-05-29T11:13:56;27.66;42.01
75387;DHT22;63966;47.914;22.266;2023-05-29T11:16:59;27.45;41.92
75387;DHT22;63966;47.914;22.266;2023-05-29T11:20:07;27.03;42.60
75387;DHT22;63966;47.914;22.266;2023-05-29T11:23:15;27.11;41.00
75387;DHT22;63966;47.914;22.266;2023-05-29T11:26:25;27.08;41.61
75387;DHT22;63966;47.914;22.266;2023-05-29T11:29:29;27.18;43.00
75387;DHT22;63966;47.914;22.266;2023-05-29T11:32:36;27.20;42.03
75387;DHT22;63966;47.914;22.266;2023-05-29T11:35:39;27.27;41.62
75387;DHT22;63966;47.914;22.266;2023-05-29T11:38:43;27.20;41.55
75387;DHT22;63966;47.914;22.266;2023-05-29T11:41:50;27.04;43.44
75387;DHT22;63966;47.914;22.266;2023-05-29T11:44:55;27.24;43.80
75387;DHT22;63966;47.914;22.266;2023-05-29T11:48:00;27.42;41.81
75387;DHT22;63966;47.914;22.266;2023-05-29T11:51:04;27.28;40.25
75387;DHT22;63966;47.914;22.266;2023-05-29T11:54:12;26.93;38.78
75387;DHT22;63966;47.914;22.266;2023-05-29T11:57:19;26.96;40.13
75387;DHT22;63966;47.914;22.266;2023-05-29T12:00:23;27.06;40.31
75387;DHT22;63966;47.914;22.266;2023-05-29T12:03:27;27.23;40.30
75387;DHT22;63966;47.914;22.266;2023-05-29T12:06:35;27.10;39.20
75387;DHT22;63966;47.914;22.266;2023-05-29T12:09:40;27.21;40.18
75387;DHT22;63966;47.914;22.266;2023-05-29T12:12:55;27.56;39.67
75387;DHT22;63966;47.914;22.266;2023-05-29T12:16:00;27.73;37.08
75387;DHT22;63966;47.914;22.266;2023-05-29T12:19:05;28.00;39.38
75387;DHT22;63966;47.914;22.266;2023-05-29T12:22:09;27.83;37.58
75387;DHT22;63966;47.914;22.266;2023-05-29T12:25:20;27.55;36.98
75387;DHT22;63966;47.914;22.266;2023-05-29T12:28:23;27.38;37.17
75387;DHT22;63966;47.914;22.266;2023-05-29T12:31:30;27.30;37.62
75387;DHT22;63966;47.914;22.266;2023-05-29T12:34:35;27.21;38.94
75387;DHT22;63966;47.914;22.266;2023-05-29T12:41:02;27.69;37.27
75387;DHT22;63966;47.914;22.266;2023-05-29T12:44:07;27.67;37.34
75387;DHT22;63966;47.914;22.266;2023-05-29T12:47:14;27.94;38.22
75387;DHT22;63966;47.914;22.266;2023-05-29T12:53:28;27.85;37.67
75387;DHT22;63966;47.914;22.266;2023-05-29T12:56:33;27.28;38.56
75387;DHT22;63966;47.914;22.266;2023-05-29T12:59:36;27.07;40.18
75387;DHT22;63966;47.914;22.266;2023-05-29T13:02:40;26.89;38.41
75387;DHT22;63966;47.914;22.266;2023-05-29T13:05:43;26.75;39.26
75387;DHT22;63966;47.914;22.266;2023-05-29T13:08:47;27.01;39.60
75387;DHT22;63966;47.914;22.266;2023-05-29T13:11:50;27.24;36.49
75387;DHT22;63966;47.914;22.266;2023-05-29T13:14:56;27.45;36.40
75387;DHT22;63966;47.914;22.266;2023-05-29T13:17:59;27.76;35.12
75387;DHT22;63966;47.914;22.266;2023-05-29T13:21:03;27.93;36.97
75387;DHT22;63966;47.914;22.266;2023-05-29T13:24:06;27.94;36.05
75387;DHT22;63966;47.914;22.266;2023-05-29T13:27:10;27.85;37.40
75387;DHT22;63966;47.914;22.266;2023-05-29T13:30:14;27.41;41.94
75387;DHT22;63966;47.914;22.266;2023-05-29T13:33:17;26.45;47.97
75387;DHT22;63966;47.914;22.266;2023-05-29T13:36:21;26.02;47.27
75387;DHT22;63966;47.914;22.266;2023-05-29T13:39:25;25.93;47.93
75387;DHT22;63966;47.914;22.266;2023-05-29T13:42:28;25.57;47.46
75387;DHT22;63966;47.914;22.266;2023-05-29T13:45:32;25.16;47.16
75387;DHT22;63966;47.914;22.266;2023-05-29T13:48:35;25.11;47.34
75387;DHT22;63966;47.914;22.266;2023-05-29T13:51:38;25.20;48.32
75387;DHT22;63966;47.914;22.266;2023-05-29T13:54:42;25.18;49.27
75387;DHT22;63966;47.914;22.266;2023-05-29T13:57:45;25.35;44.93
75387;DHT22;63966;47.914;22.266;2023-05-29T14:00:49;25.33;45.60
75387;DHT22;63966;47.914;22.266;2023-05-29T14:03:52;25.30;45.12
75387;DHT22;63966;47.914;22.266;2023-05-29T14:06:56;25.27;44.54
75387;DHT22;63966;47.914;22.266;2023-05-29T14:10:00;25.42;46.36
75387;DHT22;63966;47.914;22.266;2023-05-29T14:13:04;25.33;46.90
75387;DHT22;63966;47.914;22.266;2023-05-29T14:16:07;25.33;48.59
75387;DHT22;63966;47.914;22.266;2023-05-29T14:19:11;25.30;48.47
75387;DHT22;63966;47.914;22.266;2023-05-29T14:22:15;25.18;48.16
75387;DHT22;63966;47.914;22.266;2023-05-29T14:25:18;25.18;47.88
75387;DHT22;63966;47.914;22.266;2023-05-29T14:28:22;25.26;49.30
75387;DHT22;63966;47.914;22.266;2023-05-29T14:31:25;25.40;49.73
75387;DHT22;63966;47.914;22.266;2023-05-29T14:34:29;25.36;48.35
75387;DHT22;63966;47.914;22.266;2023-05-29T14:37:32;25.20;48.80
75387;DHT22;63966;47.914;22.266;2023-05-29T14:40:36;25.25;47.54
75387;DHT22;63966;47.914;22.266;2023-05-29T14:43:42;25.30;47.39
75387;DHT22;63966;47.914;22.266;2023-05-29T14:46:45;25.36;47.13
75387;DHT22;63966;47.914;22.266;2023-05-29T14:49:49;25.42;47.65
75387;DHT22;63966;47.914;22.266;2023-05-29T14:52:52;25.32;49.43
75387;DHT22;63966;47.914;22.266;2023-05-29T14:55:56;25.08;50.54
75387;DHT22;63966;47.914;22.266;2023-05-29T14:58:59;24.95;51.40
75387;DHT22;63966;47.914;22.266;2023-05-29T15:02:03;24.87;52.32
75387;DHT22;63966;47.914;22.266;2023-05-29T15:05:07;24.87;51.98
75387;DHT22;63966;47.914;22.266;2023-05-29T15:08:11;24.82;53.28
75387;DHT22;63966;47.914;22.266;2023-05-29T15:11:14;24.67;53.79
75387;DHT22;63966;47.914;22.266;2023-05-29T15:14:18;24.71;53.20
75387;DHT22;63966;47.914;22.266;2023-05-29T15:17:22;24.79;53.82
75387;DHT22;63966;47.914;22.266;2023-05-29T15:20:26;24.81;53.90
75387;DHT22;63966;47.914;22.266;2023-05-29T15:23:30;24.84;53.08
75387;DHT22;63966;47.914;22.266;2023-05-29T15:26:37;24.82;53.07
75387;DHT22;63966;47.914;22.266;2023-05-29T15:29:42;24.89;52.52
75387;DHT22;63966;47.914;22.266;2023-05-29T15:32:46;24.99;51.82
75387;DHT22;63966;47.914;22.266;2023-05-29T15:35:50;25.02;51.93
75387;DHT22;63966;47.914;22.266;2023-05-29T15:38:53;25.02;52.05
75387;DHT22;63966;47.914;22.266;2023-05-29T15:41:57;25.04;53.85
75387;DHT22;63966;47.914;22.266;2023-05-29T15:45:01;24.98;52.23
75387;DHT22;63966;47.914;22.266;2023-05-29T15:48:07;24.89;52.79
75387;DHT22;63966;47.914;22.266;2023-05-29T15:51:10;24.75;53.16
75387;DHT22;63966;47.914;22.266;2023-05-29T15:54:15;24.77;53.79
75387;DHT22;63966;47.914;22.266;2023-05-29T15:57:18;24.68;55.47
75387;DHT22;63966;47.914;22.266;2023-05-29T16:00:22;24.43;55.13
75387;DHT22;63966;47.914;22.266;2023-05-29T16:03:25;23.89;52.41
75387;DHT22;63966;47.914;22.266;2023-05-29T16:06:29;23.38;52.88
75387;DHT22;63966;47.914;22.266;2023-05-29T16:09:32;23.08;53.04
75387;DHT22;63966;47.914;22.266;2023-05-29T16:12:35;22.90;53.99
75387;DHT22;63966;47.914;22.266;2023-05-29T16:15:39;22.76;54.87
75387;DHT22;63966;47.914;22.266;2023-05-29T16:18:42;22.59;55.21
75387;DHT22;63966;47.914;22.266;2023-05-29T16:21:45;22.49;54.26
75387;DHT22;63966;47.914;22.266;2023-05-29T16:24:49;22.38;53.48
75387;DHT22;63966;47.914;22.266;2023-05-29T16:27:53;22.28;50.38
75387;DHT22;63966;47.914;22.266;2023-05-29T16:30:57;22.20;49.33
75387;DHT22;63966;47.914;22.266;2023-05-29T16:34:00;22.20;48.77
75387;DHT22;63966;47.914;22.266;2023-05-29T16:37:04;22.15;46.01
75387;DHT22;63966;47.914;22.266;2023-05-29T16:40:11;22.01;46.74
75387;DHT22;63966;47.914;22.266;2023-05-29T16:43:15;21.97;47.16
75387;DHT22;63966;47.914;22.266;2023-05-29T16:46:18;21.96;48.48
75387;DHT22;63966;47.914;22.266;2023-05-29T16:49:22;21.90;50.29
75387;DHT22;63966;47.914;22.266;2023-05-29T16:52:25;21.79;51.58
75387;DHT22;63966;47.914;22.266;2023-05-29T16:55:29;21.84;51.12
75387;DHT22;63966;47.914;22.266;2023-05-29T16:58:32;21.72;52.49
75387;DHT22;63966;47.914;22.266;2023-05-29T17:01:37;21.69;54.01
75387;DHT22;63966;47.914;22.266;2023-05-29T17:04:41;21.52;55.66
75387;DHT22;63966;47.914;22.266;2023-05-29T17:07:44;21.46;57.17
75387;DHT22;63966;47.914;22.266;2023-05-29T17:10:48;21.46;57.98
75387;DHT22;63966;47.914;22.266;2023-05-29T17:13:51;21.35;58.78
75387;DHT22;63966;47.914;22.266;2023-05-29T17:16:55;21.19;59.87
75387;DHT22;63966;47.914;22.266;2023-05-29T17:19:59;21.22;60.57
75387;DHT22;63966;47.914;22.266;2023-05-29T17:23:02;21.19;60.96
75387;DHT22;63966;47.914;22.266;2023-05-29T17:26:06;21.07;61.70
75387;DHT22;63966;47.914;22.266;2023-05-29T17:29:10;21.29;61.26
75387;DHT22;63966;47.914;22.266;2023-05-29T17:32:15;21.35;61.10
75387;DHT22;63966;47.914;22.266;2023-05-29T17:35:18;21.34;61.61
75387;DHT22;63966;47.914;22.266;2023-05-29T17:38:21;21.28;61.60
75387;DHT22;63966;47.914;22.266;2023-05-29T17:41:25;21.38;61.48
75387;DHT22;63966;47.914;22.266;2023-05-29T17:44:30;21.19;62.30
75387;DHT22;63966;47.914;22.266;2023-05-29T17:47:33;20.95;63.34
75387;DHT22;63966;47.914;22.266;2023-05-29T17:50:37;20.80;64.09
75387;DHT22;63966;47.914;22.266;2023-05-29T17:53:40;20.71;64.15
75387;DHT22;63966;47.914;22.266;2023-05-29T17:56:44;20.63;64.70
75387;DHT22;63966;47.914;22.266;2023-05-29T17:59:48;20.57;64.81
75387;DHT22;63966;47.914;22.266;2023-05-29T18:02:51;20.44;65.88
75387;DHT22;63966;47.914;22.266;2023-05-29T18:05:55;20.36;66.34
75387;DHT22;63966;47.914;22.266;2023-05-29T18:08:59;20.22;66.72
75387;DHT22;63966;47.914;22.266;2023-05-29T18:12:03;20.06;67.53
75387;DHT22;63966;47.914;22.266;2023-05-29T18:15:07;19.89;68.13
75387;DHT22;63966;47.914;22.266;2023-05-29T18:18:12;19.70;68.58
75387;DHT22;63966;47.914;22.266;2023-05-29T18:21:15;19.50;69.33
75387;DHT22;63966;47.914;22.266;2023-05-29T18:24:19;19.36;69.64
75387;DHT22;63966;47.914;22.266;2023-05-29T18:27:22;19.19;70.24
75387;DHT22;63966;47.914;22.266;2023-05-29T18:30:26;19.00;70.33
75387;DHT22;63966;47.914;22.266;2023-05-29T18:33:29;18.85;70.11
75387;DHT22;63966;47.914;22.266;2023-05-29T18:36:33;18.69;70.21
75387;DHT22;63966;47.914;22.266;2023-05-29T18:39:37;18.54;70.84
75387;DHT22;63966;47.914;22.266;2023-05-29T18:42:41;18.47;71.35
75387;DHT22;63966;47.914;22.266;2023-05-29T18:45:44;18.37;71.56
75387;DHT22;63966;47.914;22.266;2023-05-29T18:48:48;18.31;71.20
75387;DHT22;63966;47.914;22.266;2023-05-29T18:51:51;18.23;71.61
75387;DHT22;63966;47.914;22.266;2023-05-29T18:54:54;18.04;71.80
75387;DHT22;63966;47.914;22.266;2023-05-29T18:57:58;17.99;72.57
75387;DHT22;63966;47.914;22.266;2023-05-29T19:01:04;17.89;72.56
75387;DHT22;63966;47.914;22.266;2023-05-29T19:04:28;17.76;72.91
75387;DHT22;63966;47.914;22.266;2023-05-29T19:07:33;17.63;73.44
75387;DHT22;63966;47.914;22.266;2023-05-29T19:10:37;17.66;72.66
75387;DHT22;63966;47.914;22.266;2023-05-29T19:13:41;17.72;73.17
75387;DHT22;63966;47.914;22.266;2023-05-29T19:16:45;17.72;73.40
75387;DHT22;63966;47.914;22.266;2023-05-29T19:19:49;17.59;73.99
75387;DHT22;63966;47.914;22.266;2023-05-29T19:22:53;17.51;74.55
75387;DHT22;63966;47.914;22.266;2023-05-29T19:25:56;17.45;74.87
75387;DHT22;63966;47.914;22.266;2023-05-29T19:28:59;17.32;75.29
75387;DHT22;63966;47.914;22.266;2023-05-29T19:32:04;17.21;75.39
75387;DHT22;63966;47.914;22.266;2023-05-29T19:35:08;17.14;75.22
75387;DHT22;63966;47.914;22.266;2023-05-29T19:38:12;17.11;75.99
75387;DHT22;63966;47.914;22.266;2023-05-29T19:41:15;16.99;76.44
75387;DHT22;63966;47.914;22.266;2023-05-29T19:44:19;16.86;76.82
75387;DHT22;63966;47.914;22.266;2023-05-29T19:47:23;16.72;76.92